Time;durP1;ratioP1;P1;durP2;ratioP2;P2;SDS_P1;SDS_P2;PMS_P1;PMS_P2;Temp;Humidity;BMP_temperature;BMP_pressure;BME280_temperature;BME280_humidity;BME280_pressure;Samples;Min_cycle;Max_cycle;Signal;HPM_P1;HPM_P2
2023/05/26 00:01:34;;;;;;;9.55;5.22;;;;;14.50;96948.00;;;;8220726;28;20708;-63
2023/05/26 00:05:40;;;;;;;7.97;5.05;;;;;14.40;96946.00;;;;8211762;28;20843;-63
2023/05/26 00:09:43;;;;;;;9.43;5.28;;;;;14.40;96963.00;;;;8216646;28;20207;-65
2023/05/26 00:13:46;;;;;;;14.60;5.28;;;;;14.30;96958.00;;;;8218785;28;20262;-65
2023/05/26 00:17:57;;;;;;;18.15;6.28;;;;;14.30;96954.00;;;;8217717;28;20206;-63
2023/05/26 00:22:01;;;;;;;12.65;6.00;;;;;14.20;96948.00;;;;8207926;28;20238;-68
2023/05/26 00:26:04;;;;;;;10.40;5.53;;;;;14.10;96950.00;;;;8209730;28;20338;-69
2023/05/26 00:30:09;;;;;;;12.90;6.53;;;;;14.00;96951.00;;;;8216570;28;20568;-66
2023/05/26 00:34:16;;;;;;;8.88;5.05;;;;;14.00;96954.00;;;;8209884;28;20241;-66
2023/05/26 00:38:21;;;;;;;11.63;5.65;;;;;13.90;96965.00;;;;8205382;28;20283;-62
2023/05/26 00:42:27;;;;;;;8.73;5.10;;;;;13.90;96951.00;;;;8217296;28;20282;-66
2023/05/26 00:46:31;;;;;;;13.65;5.72;;;;;13.80;96968.00;;;;8221641;28;20321;-65
2023/05/26 00:50:36;;;;;;;7.78;5.30;;;;;13.80;96963.00;;;;8218126;28;20243;-69
2023/05/26 00:54:40;;;;;;;9.98;5.72;;;;;13.70;96949.00;;;;8215816;28;20325;-63
2023/05/26 00:58:44;;;;;;;16.05;6.63;;;;;13.60;96954.00;;;;8222884;28;20665;-66
2023/05/26 01:02:51;;;;;;;17.45;6.00;;;;;13.60;96953.00;;;;8217199;28;20313;-64
2023/05/26 01:06:56;;;;;;;9.95;5.65;;;;;13.50;96958.00;;;;8223986;28;20211;-64
2023/05/26 01:11:04;;;;;;;14.70;5.78;;;;;13.40;96953.00;;;;8218920;28;20235;-66
2023/05/26 01:15:12;;;;;;;10.35;6.18;;;;;13.40;96948.00;;;;8223328;28;20226;-64
2023/05/26 01:19:46;;;;;;;9.32;5.70;;;;;13.30;96949.00;;;;8223720;28;20655;-65
2023/05/26 01:24:12;;;;;;;15.55;6.85;;;;;13.20;96949.00;;;;8218575;28;20214;-63
2023/05/26 01:28:22;;;;;;;16.08;5.63;;;;;13.20;96948.00;;;;8223271;28;20199;-63
2023/05/26 01:32:25;;;;;;;14.63;5.95;;;;;13.20;96943.00;;;;8224762;28;20220;-64
2023/05/26 01:36:29;;;;;;;14.48;6.43;;;;;13.10;96947.00;;;;8223327;28;20246;-62
2023/05/26 01:40:33;;;;;;;10.40;6.18;;;;;13.10;96947.00;;;;8221855;28;20631;-67
2023/05/26 01:44:46;;;;;;;9.30;5.88;;;;;13.10;96946.00;;;;8210890;28;20221;-67
2023/05/26 01:48:52;;;;;;;11.88;6.43;;;;;13.10;96953.00;;;;8214590;28;20231;-67
2023/05/26 01:53:05;;;;;;;11.48;6.63;;;;;13.00;96949.00;;;;8223664;28;20736;-62
2023/05/26 01:57:12;;;;;;;14.85;6.63;;;;;12.90;96947.00;;;;8201421;28;20222;-62
2023/05/26 02:01:16;;;;;;;15.85;5.70;;;;;12.80;96955.00;;;;8221988;28;20208;-66
2023/05/26 02:05:20;;;;;;;12.20;6.03;;;;;12.80;96953.00;;;;8215544;28;20663;-66
2023/05/26 02:09:23;;;;;;;8.98;5.93;;;;;12.80;96944.00;;;;8223570;28;20236;-65
2023/05/26 02:13:27;;;;;;;10.48;5.97;;;;;12.70;96936.00;;;;8213667;28;20273;-66
2023/05/26 02:17:33;;;;;;;11.57;6.35;;;;;12.70;96945.00;;;;8220364;28;20332;-66
2023/05/26 02:21:36;;;;;;;15.82;7.15;;;;;12.70;96938.00;;;;8214995;28;20218;-68
2023/05/26 02:25:45;;;;;;;17.80;6.35;;;;;12.60;96940.00;;;;8216443;28;20296;-66
2023/05/26 02:29:52;;;;;;;14.35;6.38;;;;;12.50;96936.00;;;;8217378;28;20221;-67
2023/05/26 02:33:59;;;;;;;11.05;6.28;;;;;12.50;96943.00;;;;8215473;28;20238;-65
2023/05/26 02:38:02;;;;;;;12.48;6.03;;;;;12.50;96937.00;;;;8214738;28;20214;-66
2023/05/26 02:42:06;;;;;;;15.55;6.65;;;;;12.40;96928.00;;;;8219999;28;20299;-65
2023/05/26 02:46:10;;;;;;;11.73;6.30;;;;;12.40;96935.00;;;;8220319;28;20643;-71
2023/05/26 02:50:14;;;;;;;12.45;6.38;;;;;12.40;96940.00;;;;8221300;28;20213;-67
2023/05/26 02:54:18;;;;;;;13.35;6.20;;;;;12.30;96943.00;;;;8218853;28;20241;-65
2023/05/26 02:58:21;;;;;;;9.52;5.82;;;;;12.30;96941.00;;;;8221056;28;20321;-66
2023/05/26 03:02:25;;;;;;;12.25;6.55;;;;;12.30;96939.00;;;;8249948;23;20276;-67
2023/05/26 03:06:30;;;;;;;11.45;6.07;;;;;12.40;96938.00;;;;8184034;28;20207;-67
2023/05/26 03:10:33;;;;;;;14.98;6.88;;;;;12.30;96938.00;;;;8205222;28;20209;-62
2023/05/26 03:14:36;;;;;;;11.25;5.97;;;;;12.30;96928.00;;;;8199934;28;20238;-66
2023/05/26 03:18:39;;;;;;;14.68;6.20;;;;;12.30;96923.00;;;;8199432;28;20279;-63
2023/05/26 03:22:44;;;;;;;12.50;6.78;;;;;12.30;96928.00;;;;8199328;28;20880;-66
2023/05/26 03:26:57;;;;;;;17.08;6.30;;;;;12.30;96924.00;;;;8199567;28;20238;-66
2023/05/26 03:31:04;;;;;;;15.45;6.53;;;;;12.30;96919.00;;;;8195994;28;20198;-64
2023/05/26 03:35:08;;;;;;;12.77;6.70;;;;;12.40;96925.00;;;;8190024;28;20693;-62
2023/05/26 03:39:14;;;;;;;13.07;6.60;;;;;12.40;96916.00;;;;8204066;28;20284;-65
2023/05/26 03:43:20;;;;;;;17.23;6.72;;;;;12.40;96929.00;;;;8184578;28;20656;-66
2023/05/26 03:47:32;;;;;;;12.35;6.60;;;;;12.40;96931.00;;;;8195552;28;20213;-65
2023/05/26 03:51:36;;;;;;;14.80;7.28;;;;;12.40;96921.00;;;;8205435;28;20640;-66
2023/05/26 03:55:45;;;;;;;13.20;5.65;;;;;12.50;96925.00;;;;8193120;28;20293;-66
2023/05/26 03:59:48;;;;;;;14.45;6.60;;;;;12.60;96931.00;;;;8201512;28;20276;-69
2023/05/26 04:03:56;;;;;;;11.32;6.50;;;;;12.70;96926.00;;;;8202129;28;20593;-65
2023/05/26 04:08:00;;;;;;;15.02;7.10;;;;;12.80;96935.00;;;;8220643;28;20205;-63
2023/05/26 04:12:06;;;;;;;16.75;7.32;;;;;13.00;96927.00;;;;8214467;28;20292;-66
2023/05/26 04:16:09;;;;;;;15.35;6.75;;;;;13.20;96936.00;;;;8220491;28;20233;-64
2023/05/26 04:24:30;;;;;;;16.33;6.72;;;;;13.50;96933.00;;;;8221536;28;20206;-65
2023/05/26 04:28:37;;;;;;;11.02;6.00;;;;;13.70;96940.00;;;;8225041;28;20736;-67
2023/05/26 04:32:42;;;;;;;20.63;6.50;;;;;13.90;96947.00;;;;8217472;28;20211;-65
2023/05/26 04:36:46;;;;;;;14.63;5.72;;;;;14.20;96943.00;;;;8225546;28;20235;-63
2023/05/26 04:40:49;;;;;;;16.27;6.00;;;;;14.30;96954.00;;;;8222910;28;20209;-68
2023/05/26 04:44:57;;;;;;;12.65;5.93;;;;;14.50;96949.00;;;;8219028;28;20215;-64
2023/05/26 04:49:00;;;;;;;11.65;6.05;;;;;14.80;96950.00;;;;8221968;28;20295;-65
2023/05/26 04:53:03;;;;;;;11.85;6.57;;;;;15.10;96952.00;;;;8225358;28;20626;-66
2023/05/26 04:57:06;;;;;;;12.98;6.00;;;;;15.40;96957.00;;;;8225790;28;20587;-66
2023/05/26 05:01:11;;;;;;;9.00;6.05;;;;;15.70;96952.00;;;;8224840;28;20203;-66
2023/05/26 05:05:16;;;;;;;17.20;7.07;;;;;16.00;96950.00;;;;8217109;28;20219;-65
2023/05/26 05:09:19;;;;;;;22.67;6.75;;;;;16.20;96956.00;;;;8208237;28;20231;-64
2023/05/26 05:13:22;;;;;;;13.73;6.28;;;;;16.30;96947.00;;;;8201298;28;20291;-63
2023/05/26 05:17:29;;;;;;;15.00;6.68;;;;;16.30;96953.00;;;;8208490;28;20238;-68
2023/05/26 05:21:33;;;;;;;20.02;6.28;;;;;16.50;96949.00;;;;8200176;28;20218;-67
2023/05/26 05:25:36;;;;;;;13.27;6.60;;;;;16.60;96959.00;;;;8217334;28;20207;-66
2023/05/26 05:29:45;;;;;;;11.77;5.90;;;;;16.50;96960.00;;;;8212816;28;20212;-66
2023/05/26 05:33:50;;;;;;;11.45;6.28;;;;;16.50;96960.00;;;;8220194;28;20207;-67
2023/05/26 05:37:56;;;;;;;10.70;6.15;;;;;16.60;96966.00;;;;8207628;28;20674;-67
2023/05/26 05:42:04;;;;;;;14.18;6.68;;;;;16.60;96976.00;;;;8219629;28;20211;-69
2023/05/26 05:46:10;;;;;;;16.30;6.72;;;;;16.70;96981.00;;;;8223787;28;20291;-69
2023/05/26 05:50:16;;;;;;;18.95;6.70;;;;;16.80;96977.00;;;;8221366;28;20546;-68
2023/05/26 05:54:19;;;;;;;12.85;5.75;;;;;16.70;96979.00;;;;8222877;28;20979;-62
2023/05/26 05:58:22;;;;;;;14.30;5.80;;;;;16.90;96982.00;;;;8221318;28;20318;-66
2023/05/26 06:02:26;;;;;;;11.75;6.05;;;;;17.20;96988.00;;;;8221044;28;20263;-70
2023/05/26 06:06:31;;;;;;;11.63;6.07;;;;;17.40;96990.00;;;;8223731;28;20211;-64
2023/05/26 06:10:37;;;;;;;15.63;5.68;;;;;17.70;96990.00;;;;8224245;28;20215;-65
2023/05/26 06:14:45;;;;;;;10.75;5.47;;;;;18.00;96991.00;;;;8216457;28;20222;-69
2023/05/26 06:18:51;;;;;;;13.23;6.32;;;;;17.90;96985.00;;;;8218630;28;20227;-72
2023/05/26 06:22:55;;;;;;;14.25;6.22;;;;;17.90;96990.00;;;;8202523;28;20212;-69
2023/05/26 06:27:03;;;;;;;21.58;6.50;;;;;18.20;96988.00;;;;8208716;28;20659;-68
2023/05/26 06:31:07;;;;;;;13.60;5.88;;;;;18.80;96993.00;;;;8206653;28;20235;-67
2023/05/26 06:35:12;;;;;;;12.93;6.20;;;;;19.20;96999.00;;;;8212473;28;20226;-76
2023/05/26 06:39:23;;;;;;;10.15;6.22;;;;;19.10;96999.00;;;;8205255;28;20250;-69
2023/05/26 06:43:29;;;;;;;12.90;5.55;;;;;19.20;97008.00;;;;8202667;28;20307;-65
2023/05/26 06:47:32;;;;;;;11.45;6.28;;;;;19.50;97002.00;;;;8210539;28;20303;-66
2023/05/26 06:51:36;;;;;;;13.32;5.53;;;;;19.70;97005.00;;;;8199284;28;20295;-66
2023/05/26 06:55:41;;;;;;;18.25;6.60;;;;;19.90;97009.00;;;;8219595;28;20359;-70
2023/05/26 06:59:44;;;;;;;13.30;5.90;;;;;20.00;96999.00;;;;8212392;28;20651;-72
2023/05/26 07:03:47;;;;;;;17.40;6.05;;;;;20.40;97003.00;;;;8210245;28;20651;-67
2023/05/26 07:07:51;;;;;;;17.13;7.03;;;;;20.40;97009.00;;;;8197344;28;20207;-68
2023/05/26 07:11:55;;;;;;;15.50;6.53;;;;;20.70;97009.00;;;;8194872;28;20208;-68
2023/05/26 07:15:58;;;;;;;11.25;5.50;;;;;20.90;97016.00;;;;8182149;28;20264;-68
2023/05/26 07:20:02;;;;;;;12.88;6.28;;;;;21.30;97019.00;;;;8183265;28;20247;-66
2023/05/26 07:24:06;;;;;;;13.55;5.97;;;;;21.60;97018.00;;;;8182924;28;20238;-65
2023/05/26 07:28:15;;;;;;;14.70;6.63;;;;;21.80;97018.00;;;;8201807;28;20208;-67
2023/05/26 07:32:18;;;;;;;15.77;7.15;;;;;22.10;97022.00;;;;8204849;28;20681;-64
2023/05/26 07:36:21;;;;;;;16.15;6.47;;;;;22.10;97027.00;;;;8196163;28;20580;-66
2023/05/26 07:40:27;;;;;;;13.55;5.97;;;;;22.30;97024.00;;;;8195748;28;20884;-68
2023/05/26 07:44:34;;;;;;;15.70;6.57;;;;;22.70;97026.00;;;;8194402;28;20655;-66
2023/05/26 07:48:39;;;;;;;14.05;6.35;;;;;23.40;97029.00;;;;8205096;28;20212;-66
2023/05/26 07:52:49;;;;;;;11.25;6.55;;;;;23.40;97025.00;;;;8199810;28;20539;-64
2023/05/26 07:56:52;;;;;;;15.80;6.55;;;;;23.50;97033.00;;;;8198633;28;20235;-65
2023/05/26 08:00:57;;;;;;;13.63;6.00;;;;;23.80;97037.00;;;;8203620;28;20302;-64
2023/05/26 08:05:03;;;;;;;14.90;6.57;;;;;24.10;97030.00;;;;8207177;28;20342;-66
2023/05/26 08:09:11;;;;;;;14.48;5.57;;;;;24.10;97038.00;;;;8203811;28;20211;-68
2023/05/26 08:13:14;;;;;;;13.13;5.80;;;;;24.10;97037.00;;;;8193420;28;20200;-64
2023/05/26 08:17:18;;;;;;;13.30;5.75;;;;;24.30;97036.00;;;;8198778;28;20311;-67
2023/05/26 08:21:21;;;;;;;13.88;6.10;;;;;24.60;97036.00;;;;8195630;28;20212;-66
2023/05/26 08:25:26;;;;;;;9.85;6.03;;;;;25.10;97045.00;;;;8190788;28;20630;-64
2023/05/26 08:29:29;;;;;;;13.85;6.07;;;;;25.40;97037.00;;;;8191150;28;20208;-70
2023/05/26 08:33:37;;;;;;;13.10;5.97;;;;;25.80;97042.00;;;;8210974;28;20254;-65
2023/05/26 08:37:44;;;;;;;10.77;5.45;;;;;25.90;97038.00;;;;8199501;28;20230;-63
2023/05/26 08:41:52;;;;;;;12.73;6.22;;;;;26.20;97036.00;;;;8200533;28;20287;-66
2023/05/26 08:45:57;;;;;;;10.55;6.38;;;;;26.40;97034.00;;;;8200203;28;20231;-69
2023/05/26 08:50:12;;;;;;;9.70;5.88;;;;;26.50;97038.00;;;;8202348;28;20812;-65
2023/05/26 08:54:17;;;;;;;12.77;6.25;;;;;27.20;97031.00;;;;8174749;28;20208;-67
2023/05/26 08:58:23;;;;;;;8.98;5.45;;;;;27.30;97028.00;;;;8218343;28;20231;-67
2023/05/26 09:02:29;;;;;;;13.30;5.90;;;;;26.90;97037.00;;;;8209050;28;20766;-69
2023/05/26 09:06:35;;;;;;;7.57;5.82;;;;;27.10;97040.00;;;;8220206;28;20222;-75
2023/05/26 09:10:41;;;;;;;9.68;5.80;;;;;27.20;97042.00;;;;8217818;28;20700;-67
2023/05/26 09:14:44;;;;;;;10.00;5.82;;;;;27.20;97042.00;;;;8216481;28;20230;-68
2023/05/26 09:18:50;;;;;;;5.43;4.90;;;;;27.20;97045.00;;;;8220087;28;20319;-66
2023/05/26 09:22:58;;;;;;;12.48;5.97;;;;;27.30;97054.00;;;;8221339;28;20593;-65
2023/05/26 09:27:03;;;;;;;9.90;5.45;;;;;27.80;97055.00;;;;8201924;28;20214;-63
2023/05/26 09:31:10;;;;;;;10.77;5.53;;;;;27.40;97043.00;;;;8216055;28;20291;-64
2023/05/26 09:35:15;;;;;;;8.75;5.60;;;;;27.70;97047.00;;;;8224642;28;20200;-66
2023/05/26 09:39:32;;;;;;;9.95;5.97;;;;;27.80;97047.00;;;;8216918;28;20232;-62
2023/05/26 09:43:37;;;;;;;9.70;6.22;;;;;27.70;97045.00;;;;8211538;28;20235;-68
2023/05/26 09:47:40;;;;;;;13.75;5.85;;;;;27.60;97055.00;;;;8204114;28;20208;-72
2023/05/26 09:51:45;;;;;;;14.80;5.90;;;;;27.80;97052.00;;;;8207972;28;20203;-68
2023/05/26 09:56:03;;;;;;;14.52;6.32;;;;;28.00;97049.00;;;;8209804;28;20204;-66
2023/05/26 10:00:10;;;;;;;12.07;6.60;;;;;28.70;97066.00;;;;8205747;28;20852;-69
2023/05/26 10:04:15;;;;;;;31.40;7.13;;;;;29.00;97058.00;;;;8210186;28;20250;-70
2023/05/26 10:08:21;;;;;;;13.90;6.22;;;;;28.20;97057.00;;;;8217875;28;20292;-69
2023/05/26 10:12:28;;;;;;;11.45;5.68;;;;;28.40;97051.00;;;;8213237;28;20633;-65
2023/05/26 10:16:35;;;;;;;14.35;6.10;;;;;28.40;97042.00;;;;8201453;28;20212;-77
2023/05/26 10:20:39;;;;;;;14.00;6.03;;;;;28.30;97037.00;;;;8209312;28;20326;-66
2023/05/26 10:24:51;;;;;;;14.38;6.20;;;;;28.50;97028.00;;;;8203055;28;20239;-66
2023/05/26 10:29:07;;;;;;;11.73;6.57;;;;;28.40;97033.00;;;;8201783;28;20204;-63
2023/05/26 10:33:14;;;;;;;8.00;5.30;;;;;29.00;97029.00;;;;8202964;28;20295;-72
2023/05/26 10:37:18;;;;;;;9.07;5.70;;;;;29.30;97035.00;;;;8196131;28;20236;-66
2023/05/26 10:41:32;;;;;;;11.82;5.50;;;;;29.10;97034.00;;;;8198289;28;20227;-66
2023/05/26 10:45:44;;;;;;;7.28;5.15;;;;;29.50;97032.00;;;;8202779;28;20216;-66
2023/05/26 10:49:56;;;;;;;14.15;5.00;;;;;29.40;97032.00;;;;8182861;28;20211;-68
2023/05/26 10:54:00;;;;;;;9.15;5.13;;;;;29.20;97032.00;;;;8205657;28;20287;-64
2023/05/26 10:58:35;;;;;;;15.85;5.35;;;;;29.30;97033.00;;;;8196429;28;20267;-66
2023/05/26 11:02:40;;;;;;;14.02;5.38;;;;;28.10;97027.00;;;;8207214;28;20270;-65
2023/05/26 11:06:48;;;;;;;14.15;5.78;;;;;27.10;97029.00;;;;8193410;28;20279;-69
2023/05/26 11:10:59;;;;;;;10.00;5.40;;;;;26.50;97022.00;;;;8207001;28;20212;-66
2023/05/26 11:15:31;;;;;;;13.82;6.00;;;;;26.30;97012.00;;;;8199258;28;20659;-63
2023/05/26 11:19:37;;;;;;;9.68;5.50;;;;;27.00;97021.00;;;;8206219;28;20271;-65
2023/05/26 11:23:40;;;;;;;10.45;5.28;;;;;27.50;97023.00;;;;8196494;28;20208;-66
2023/05/26 11:27:49;;;;;;;9.63;5.50;;;;;27.90;97016.00;;;;8196829;28;20215;-68
2023/05/26 11:31:55;;;;;;;9.15;5.47;;;;;27.70;97024.00;;;;8195770;28;20204;-66
2023/05/26 11:36:06;;;;;;;8.80;4.93;;;;;27.70;97019.00;;;;8200628;28;20302;-66
2023/05/26 11:40:11;;;;;;;11.48;6.05;;;;;28.20;97027.00;;;;8205660;28;20219;-64
2023/05/26 11:44:15;;;;;;;9.27;5.30;;;;;28.00;97021.00;;;;8195597;28;20589;-66
2023/05/26 11:48:23;;;;;;;8.63;4.88;;;;;27.80;97027.00;;;;8200076;28;20212;-65
2023/05/26 11:52:30;;;;;;;12.63;5.13;;;;;27.30;97027.00;;;;8200797;28;20204;-65
2023/05/26 11:56:36;;;;;;;11.48;5.32;;;;;27.30;97028.00;;;;8196376;28;20204;-73
2023/05/26 12:00:42;;;;;;;8.73;5.65;;;;;26.90;97021.00;;;;8193201;28;20319;-67
2023/05/26 12:04:45;;;;;;;9.52;5.47;;;;;26.90;97022.00;;;;8200994;28;20239;-71
2023/05/26 12:08:51;;;;;;;8.68;4.85;;;;;27.00;97018.00;;;;8180491;28;20577;-65
2023/05/26 12:12:58;;;;;;;9.10;5.15;;;;;27.30;97017.00;;;;8203612;28;20212;-65
2023/05/26 12:17:02;;;;;;;13.57;5.47;;;;;28.40;97023.00;;;;8197724;28;20200;-66
2023/05/26 12:21:10;;;;;;;7.53;4.90;;;;;28.90;97010.00;;;;8201917;28;20259;-69
2023/05/26 12:25:24;;;;;;;11.60;5.30;;;;;29.40;97008.00;;;;8194133;28;20210;-67
2023/05/26 12:29:30;;;;;;;12.55;5.50;;;;;29.20;97010.00;;;;8191809;28;21164;-68
2023/05/26 12:33:35;;;;;;;15.18;5.47;;;;;29.30;97009.00;;;;8198166;28;21022;-67
2023/05/26 12:37:45;;;;;;;8.95;4.75;;;;;29.30;97007.00;;;;8194134;28;20648;-66
2023/05/26 12:41:52;;;;;;;6.60;4.57;;;;;29.10;97005.00;;;;8193582;28;20243;-64
2023/05/26 12:46:02;;;;;;;6.70;4.63;;;;;29.00;97001.00;;;;8209181;28;20836;-70
2023/05/26 12:50:12;;;;;;;9.10;5.30;;;;;28.20;96998.00;;;;8204376;28;20255;-64
2023/05/26 12:54:22;;;;;;;12.80;4.78;;;;;27.60;97003.00;;;;8206944;28;20235;-65
2023/05/26 12:58:26;;;;;;;7.50;5.25;;;;;27.20;96996.00;;;;8211811;28;20259;-66
2023/05/26 13:02:31;;;;;;;9.32;4.78;;;;;27.30;96981.00;;;;8206127;28;20238;-64
2023/05/26 13:06:34;;;;;;;8.80;4.85;;;;;27.50;96983.00;;;;8199240;28;20212;-73
2023/05/26 13:10:40;;;;;;;11.23;5.88;;;;;27.10;96991.00;;;;8199178;28;20215;-65
2023/05/26 13:14:44;;;;;;;11.70;5.25;;;;;26.80;96981.00;;;;8200322;28;20670;-64
2023/05/26 13:18:47;;;;;;;7.93;5.05;;;;;26.90;96979.00;;;;8202430;28;20241;-67
2023/05/26 13:22:51;;;;;;;5.90;4.40;;;;;28.10;96987.00;;;;8181028;28;20237;-68
2023/05/26 13:26:55;;;;;;;9.02;5.13;;;;;29.20;96986.00;;;;8202329;28;20291;-68
2023/05/26 13:30:59;;;;;;;8.05;4.90;;;;;30.00;96983.00;;;;8203791;28;20655;-64
2023/05/26 13:35:03;;;;;;;8.65;4.90;;;;;30.80;96978.00;;;;8202808;28;20299;-66
2023/05/26 13:39:06;;;;;;;8.02;4.93;;;;;31.20;96985.00;;;;8200801;28;20243;-64
2023/05/26 13:43:14;;;;;;;9.40;5.13;;;;;30.80;96983.00;;;;8196613;28;20211;-67
2023/05/26 13:47:18;;;;;;;10.32;4.90;;;;;30.60;96979.00;;;;8205946;28;20291;-69
2023/05/26 13:51:25;;;;;;;8.98;5.15;;;;;29.00;96979.00;;;;8196324;28;20199;-63
2023/05/26 13:55:28;;;;;;;7.65;5.13;;;;;29.30;96980.00;;;;8203862;28;20565;-66
2023/05/26 13:59:33;;;;;;;7.65;5.22;;;;;30.00;96981.00;;;;8208724;28;20322;-66
2023/05/26 14:03:38;;;;;;;11.00;5.05;;;;;30.30;96969.00;;;;8206748;28;20228;-67
2023/05/26 14:07:41;;;;;;;6.53;4.78;;;;;31.20;96966.00;;;;8209507;28;20212;-66
2023/05/26 14:11:44;;;;;;;8.98;4.82;;;;;32.20;96966.00;;;;8212769;28;20235;-64
2023/05/26 14:15:51;;;;;;;8.43;5.25;;;;;32.70;96959.00;;;;8211467;28;20207;-64
2023/05/26 14:19:56;;;;;;;9.43;5.35;;;;;32.80;96973.00;;;;8192540;28;20237;-61
2023/05/26 14:24:15;;;;;;;8.05;5.40;;;;;30.90;96968.00;;;;8208110;28;20256;-62
2023/05/26 14:28:18;;;;;;;9.18;5.80;;;;;29.20;96967.00;;;;8197982;28;20399;-62
2023/05/26 14:32:21;;;;;;;8.00;5.45;;;;;28.10;96961.00;;;;8199119;28;20211;-67
2023/05/26 14:36:29;;;;;;;6.70;5.20;;;;;27.20;96946.00;;;;8202908;28;20208;-66
2023/05/26 14:40:32;;;;;;;8.07;5.18;;;;;26.70;96954.00;;;;8199588;28;20242;-65
2023/05/26 14:44:38;;;;;;;9.65;5.75;;;;;27.10;96955.00;;;;8195035;28;20615;-68
2023/05/26 14:48:42;;;;;;;11.38;5.22;;;;;28.10;96956.00;;;;8207001;28;20211;-68
2023/05/26 14:52:47;;;;;;;7.07;5.50;;;;;29.00;96956.00;;;;8195696;28;20212;-65
2023/05/26 14:56:55;;;;;;;9.02;5.20;;;;;29.70;96949.00;;;;8199298;28;20234;-61
2023/05/26 15:01:01;;;;;;;7.07;5.28;;;;;30.70;96955.00;;;;8197819;28;20231;-72
2023/05/26 15:05:05;;;;;;;9.30;5.53;;;;;30.40;96952.00;;;;8210406;28;20314;-62
2023/05/26 15:09:09;;;;;;;9.38;5.55;;;;;30.20;96955.00;;;;8195502;28;20200;-63
2023/05/26 15:13:12;;;;;;;11.20;5.72;;;;;29.40;96945.00;;;;8196593;28;20295;-61
2023/05/26 15:17:16;;;;;;;8.15;5.70;;;;;28.30;96942.00;;;;8198487;28;20235;-64
2023/05/26 15:21:28;;;;;;;8.63;5.90;;;;;28.30;96941.00;;;;8198965;28;20227;-63
2023/05/26 15:25:41;;;;;;;7.97;5.15;;;;;29.20;96935.00;;;;8201065;28;20220;-65
2023/05/26 15:29:45;;;;;;;7.57;5.45;;;;;29.70;96934.00;;;;8197714;28;20199;-63
2023/05/26 15:33:50;;;;;;;10.18;5.82;;;;;30.50;96933.00;;;;8182513;28;20665;-68
2023/05/26 15:37:56;;;;;;;7.80;5.63;;;;;30.70;96939.00;;;;8194805;28;20200;-65
2023/05/26 15:42:23;;;;;;;9.57;5.78;;;;;30.20;96940.00;;;;8198396;28;20835;-62
2023/05/26 15:46:30;;;;;;;9.60;5.47;;;;;29.30;96933.00;;;;8196344;28;20288;-65
2023/05/26 15:50:35;;;;;;;7.15;5.50;;;;;28.40;96941.00;;;;8198475;28;20336;-64
2023/05/26 15:54:38;;;;;;;7.25;5.20;;;;;28.30;96925.00;;;;8191593;28;20299;-69
2023/05/26 15:58:43;;;;;;;7.20;5.35;;;;;28.10;96931.00;;;;8196793;28;20204;-65
2023/05/26 16:02:46;;;;;;;9.02;5.60;;;;;27.60;96926.00;;;;8182007;28;20257;-66
2023/05/26 16:06:50;;;;;;;10.13;5.47;;;;;27.10;96931.00;;;;8211085;28;20203;-69
2023/05/26 16:11:01;;;;;;;9.18;5.55;;;;;26.80;96924.00;;;;8203646;28;20705;-62
2023/05/26 16:15:11;;;;;;;10.30;5.85;;;;;26.70;96925.00;;;;8205734;28;20318;-68
2023/05/26 16:19:20;;;;;;;7.60;5.13;;;;;27.10;96928.00;;;;8206336;28;20250;-63
2023/05/26 16:23:27;;;;;;;9.52;5.70;;;;;27.70;96933.00;;;;8194030;28;20208;-62
2023/05/26 16:27:30;;;;;;;6.90;5.55;;;;;28.00;96922.00;;;;8208804;28;20220;-64
2023/05/26 16:31:36;;;;;;;9.35;5.60;;;;;28.10;96926.00;;;;8199742;28;20259;-63
2023/05/26 16:35:43;;;;;;;6.55;5.07;;;;;28.00;96918.00;;;;8195511;28;20219;-64
2023/05/26 16:39:52;;;;;;;10.68;6.43;;;;;27.80;96914.00;;;;8198256;28;20231;-66
2023/05/26 16:43:57;;;;;;;7.57;5.95;;;;;27.90;96916.00;;;;8188959;28;20211;-65
2023/05/26 16:48:07;;;;;;;7.50;5.35;;;;;28.10;96922.00;;;;8202760;28;20805;-65
2023/05/26 16:52:10;;;;;;;8.43;6.28;;;;;27.80;96925.00;;;;8198796;28;20219;-69
2023/05/26 16:56:13;;;;;;;9.40;6.35;;;;;27.70;96918.00;;;;8204699;28;20295;-67
2023/05/26 17:00:18;;;;;;;9.50;6.20;;;;;27.60;96915.00;;;;8180443;28;20224;-66
2023/05/26 17:04:23;;;;;;;11.65;6.47;;;;;27.50;96918.00;;;;8197200;28;20235;-63
2023/05/26 17:08:27;;;;;;;8.02;6.05;;;;;27.20;96917.00;;;;8211310;28;20238;-65
2023/05/26 17:12:34;;;;;;;9.27;6.72;;;;;27.10;96925.00;;;;8206081;28;20207;-68
2023/05/26 17:16:37;;;;;;;12.10;6.60;;;;;26.90;96919.00;;;;8195402;28;20195;-67
2023/05/26 17:20:41;;;;;;;11.60;6.68;;;;;26.50;96915.00;;;;8203141;28;20282;-62
2023/05/26 17:24:46;;;;;;;10.02;6.35;;;;;26.40;96915.00;;;;8216547;28;20234;-67
2023/05/26 17:28:49;;;;;;;10.80;7.15;;;;;26.30;96918.00;;;;8219519;28;20206;-64
2023/05/26 17:32:55;;;;;;;11.60;6.43;;;;;26.10;96925.00;;;;8216799;28;20235;-63
2023/05/26 17:37:00;;;;;;;15.50;6.82;;;;;26.00;96922.00;;;;8219474;28;20203;-64
2023/05/26 17:41:05;;;;;;;9.95;6.10;;;;;26.00;96927.00;;;;8200432;28;20259;-67
2023/05/26 17:45:23;;;;;;;10.32;6.72;;;;;25.70;96929.00;;;;8184906;28;20207;-63
2023/05/26 17:49:26;;;;;;;11.18;6.90;;;;;25.60;96932.00;;;;8221125;28;20606;-63
2023/05/26 17:53:31;;;;;;;10.20;7.05;;;;;25.30;96935.00;;;;8217092;28;20234;-67
2023/05/26 17:57:35;;;;;;;12.05;6.95;;;;;24.70;96945.00;;;;8209565;28;20227;-67
2023/05/26 18:01:39;;;;;;;9.07;6.20;;;;;24.20;96938.00;;;;8210967;28;20231;-65
2023/05/26 18:05:43;;;;;;;11.77;6.93;;;;;23.70;96938.00;;;;8218908;28;20708;-63
2023/05/26 18:09:47;;;;;;;13.95;7.25;;;;;23.30;96938.00;;;;8201262;28;20286;-69
2023/05/26 18:13:50;;;;;;;8.05;6.25;;;;;23.00;96939.00;;;;8214649;28;20720;-68
2023/05/26 18:17:54;;;;;;;11.55;6.75;;;;;22.70;96946.00;;;;8208184;28;20207;-64
2023/05/26 18:22:00;;;;;;;8.50;5.95;;;;;22.50;96940.00;;;;8212560;28;20298;-63
2023/05/26 18:26:07;;;;;;;11.52;6.57;;;;;22.30;96941.00;;;;8218195;28;20326;-69
2023/05/26 18:30:14;;;;;;;12.00;6.90;;;;;22.10;96940.00;;;;8219130;28;20212;-68
2023/05/26 18:34:17;;;;;;;12.35;6.50;;;;;21.90;96954.00;;;;8219962;28;20717;-62
2023/05/26 18:38:27;;;;;;;10.88;6.65;;;;;21.60;96957.00;;;;8219380;28;20207;-64
2023/05/26 18:42:34;;;;;;;10.27;6.47;;;;;21.30;96960.00;;;;8217999;28;20347;-67
2023/05/26 18:46:40;;;;;;;12.18;6.30;;;;;21.10;96955.00;;;;8213738;28;20196;-67
2023/05/26 18:50:47;;;;;;;12.32;6.70;;;;;20.90;96961.00;;;;8223188;28;20238;-69
2023/05/26 18:54:51;;;;;;;12.23;7.47;;;;;20.70;96958.00;;;;8221600;28;20323;-66
2023/05/26 18:58:56;;;;;;;12.02;6.82;;;;;20.60;96959.00;;;;8220338;28;20368;-64
2023/05/26 19:03:01;;;;;;;10.05;6.45;;;;;20.40;96969.00;;;;8215484;28;20301;-66
2023/05/26 19:07:07;;;;;;;12.20;6.72;;;;;20.20;96974.00;;;;8201618;28;20227;-66
2023/05/26 19:11:12;;;;;;;12.35;6.45;;;;;20.00;96976.00;;;;8217904;28;20657;-68
2023/05/26 19:15:17;;;;;;;14.77;6.90;;;;;19.80;96987.00;;;;8220950;28;20211;-70
2023/05/26 19:19:21;;;;;;;10.00;6.20;;;;;19.70;97000.00;;;;8216403;28;20281;-70
2023/05/26 19:23:31;;;;;;;11.07;6.10;;;;;19.60;97001.00;;;;8215707;28;20257;-65
2023/05/26 19:27:35;;;;;;;11.57;7.03;;;;;19.50;97001.00;;;;8215201;28;20235;-67
2023/05/26 19:31:53;;;;;;;9.45;6.60;;;;;19.40;97008.00;;;;8212184;28;20292;-66
2023/05/26 19:35:57;;;;;;;13.55;6.75;;;;;19.30;97011.00;;;;8214910;28;20206;-63
2023/05/26 19:40:08;;;;;;;14.32;6.60;;;;;19.20;97024.00;;;;8217062;28;20239;-69
2023/05/26 19:44:11;;;;;;;12.88;6.05;;;;;19.10;97024.00;;;;8215386;28;20246;-64
2023/05/26 19:48:16;;;;;;;14.90;5.90;;;;;19.10;97029.00;;;;8204223;28;20683;-68
2023/05/26 19:52:19;;;;;;;8.65;5.47;;;;;19.00;97035.00;;;;8215256;28;20230;-64
2023/05/26 19:56:26;;;;;;;10.52;5.78;;;;;18.90;97029.00;;;;8207186;28;20304;-65
2023/05/26 20:00:30;;;;;;;12.10;5.50;;;;;18.70;97037.00;;;;8206612;28;20254;-66
2023/05/26 20:04:37;;;;;;;10.07;5.65;;;;;18.60;97033.00;;;;8207184;28;20235;-68
2023/05/26 20:08:40;;;;;;;10.77;5.28;;;;;18.40;97033.00;;;;8207753;28;20238;-68
2023/05/26 20:12:44;;;;;;;12.60;5.78;;;;;18.30;97035.00;;;;8213819;28;20312;-65
2023/05/26 20:16:52;;;;;;;11.05;5.30;;;;;18.20;97042.00;;;;8212914;28;20203;-64
2023/05/26 20:21:00;;;;;;;10.77;5.05;;;;;18.10;97035.00;;;;8216260;28;20238;-64
2023/05/26 20:25:05;;;;;;;9.50;5.30;;;;;18.00;97048.00;;;;8204166;28;20212;-66